createdAt,value
2022-09-28T00:01:20.774Z,12.51
2022-09-28T00:03:49.220Z,12.49
2022-09-28T00:06:18.749Z,12.46
2022-09-28T00:08:45.605Z,12.43
2022-09-28T00:11:15.100Z,12.45
2022-09-28T00:13:46.126Z,12.43
2022-09-28T00:16:15.932Z,12.37
2022-09-28T00:18:43.615Z,12.41
2022-09-28T00:21:18.587Z,12.39
2022-09-28T00:24:04.299Z,12.38
2022-09-28T00:26:32.925Z,12.34
2022-09-28T00:29:01.693Z,12.32
2022-09-28T00:31:32.638Z,12.33
2022-09-28T00:34:01.012Z,12.31
2022-09-28T00:36:29.513Z,12.30
2022-09-28T00:38:56.905Z,12.29
2022-09-28T00:41:25.548Z,12.27
2022-09-28T00:43:53.059Z,12.26
2022-09-28T00:46:28.901Z,12.24
2022-09-28T00:49:03.078Z,12.22
2022-09-28T00:51:30.555Z,12.15
2022-09-28T00:54:00.268Z,12.13
2022-09-28T00:56:29.518Z,12.12
2022-09-28T00:58:58.945Z,12.12
2022-09-28T01:01:27.577Z,12.09
2022-09-28T01:03:54.759Z,12.07
2022-09-28T01:06:23.542Z,12.07
2022-09-28T01:08:53.635Z,12.05
2022-09-28T01:11:20.585Z,12.03
2022-09-28T01:13:50.546Z,11.99
2022-09-28T01:16:41.619Z,11.97
2022-09-28T01:19:51.280Z,11.94
2022-09-28T01:22:54.129Z,11.92
2022-09-28T01:25:45.702Z,11.90
2022-09-28T01:28:19.308Z,11.90
2022-09-28T01:31:00.624Z,11.88
2022-09-28T01:33:35.561Z,11.87
2022-09-28T01:36:18.605Z,11.79
2022-09-28T01:38:55.832Z,11.83
2022-09-28T01:41:26.169Z,11.83
2022-09-28T01:43:56.419Z,11.82
2022-09-28T01:46:31.805Z,11.82
2022-09-28T01:49:02.219Z,11.81
2022-09-28T01:51:41.024Z,11.78
2022-09-28T01:54:21.008Z,11.78
2022-09-28T01:56:55.758Z,11.78
2022-09-28T01:59:27.142Z,11.76
2022-09-28T02:02:02.187Z,11.77
2022-09-28T02:05:02.593Z,11.74
2022-09-28T02:07:42.506Z,11.75
2022-09-28T02:10:22.428Z,11.74
2022-09-28T02:12:56.227Z,11.74
2022-09-28T02:15:33.379Z,11.72
2022-09-28T02:18:00.339Z,11.73
2022-09-28T02:20:31.973Z,11.71
2022-09-28T02:23:01.335Z,11.71
2022-09-28T02:25:31.418Z,11.72
2022-09-28T02:28:02.256Z,11.72
2022-09-28T02:30:35.735Z,11.70
2022-09-28T02:33:32.935Z,11.68
2022-09-28T02:36:00.718Z,11.70
2022-09-28T02:38:29.257Z,11.64
2022-09-28T02:41:36.510Z,11.66
2022-09-28T02:44:12.260Z,11.66
2022-09-28T02:46:54.508Z,11.65
2022-09-28T02:49:49.471Z,11.64
2022-09-28T02:52:45.572Z,11.65
2022-09-28T02:55:25.891Z,11.64
2022-09-28T02:58:34.415Z,11.61
2022-09-28T03:01:26.960Z,11.61
2022-09-28T03:04:13.192Z,11.61
2022-09-28T03:07:00.708Z,11.60
2022-09-28T03:09:37.052Z,11.61
2022-09-28T03:12:11.090Z,11.60
2022-09-28T03:14:37.634Z,11.58
2022-09-28T03:17:04.654Z,11.60
2022-09-28T03:19:33.784Z,11.61
2022-09-28T03:22:00.722Z,11.60
2022-09-28T03:24:27.405Z,11.61
2022-09-28T03:26:54.098Z,11.60
2022-09-28T03:29:22.211Z,11.59
2022-09-28T03:31:55.000Z,11.58
2022-09-28T03:34:21.824Z,11.58
2022-09-28T03:36:48.384Z,11.57
2022-09-28T03:39:15.022Z,11.58
2022-09-28T03:41:41.668Z,11.59
2022-09-28T03:44:08.317Z,11.59
2022-09-28T03:46:34.946Z,11.58
2022-09-28T03:49:05.865Z,11.58
2022-09-28T03:51:32.396Z,11.55
2022-09-28T03:53:58.893Z,11.56
2022-09-28T03:56:26.045Z,11.55
2022-09-28T03:58:52.631Z,11.54
2022-09-28T04:01:19.490Z,11.56
2022-09-28T04:03:47.722Z,11.54
2022-09-28T04:06:15.144Z,11.55
2022-09-28T04:08:43.329Z,11.53
2022-09-28T04:11:10.423Z,11.55
2022-09-28T04:13:37.267Z,11.54
2022-09-28T04:16:05.965Z,11.52
2022-09-28T04:18:35.150Z,11.53
2022-09-28T04:21:13.124Z,11.54
2022-09-28T04:23:44.580Z,11.53
2022-09-28T04:26:20.125Z,11.53
2022-09-28T04:29:07.099Z,11.52
2022-09-28T04:31:42.280Z,11.51
2022-09-28T04:34:09.383Z,11.48
2022-09-28T04:36:35.946Z,11.50
2022-09-28T04:39:02.581Z,11.51
2022-09-28T04:41:31.108Z,11.51
2022-09-28T04:43:57.705Z,11.50
2022-09-28T04:46:26.075Z,11.50
2022-09-28T04:49:12.657Z,11.49
2022-09-28T04:51:52.262Z,11.49
2022-09-28T04:54:18.929Z,11.48
2022-09-28T04:56:45.607Z,11.48
2022-09-28T04:59:13.453Z,11.49
2022-09-28T05:01:41.222Z,11.44
2022-09-28T05:04:24.979Z,11.47
2022-09-28T05:07:11.313Z,11.46
2022-09-28T05:09:38.740Z,11.47
2022-09-28T05:12:05.604Z,11.46
2022-09-28T05:14:32.161Z,11.45
2022-09-28T05:16:58.987Z,11.45
2022-09-28T05:19:25.523Z,11.47
2022-09-28T05:21:58.054Z,11.47
2022-09-28T05:24:24.896Z,11.46
2022-09-28T05:26:53.063Z,11.44
2022-09-28T05:29:19.853Z,11.46
2022-09-28T05:32:05.216Z,11.45
2022-09-28T05:51:46.654Z,11.34
2022-09-28T05:54:13.572Z,11.34
2022-09-28T05:56:44.095Z,11.33
2022-09-28T05:59:12.079Z,11.34
2022-09-28T06:01:38.829Z,11.36
2022-09-28T06:04:09.004Z,11.36
2022-09-28T06:06:36.738Z,11.35
2022-09-28T06:09:03.316Z,11.34
2022-09-28T06:11:32.689Z,11.35
2022-09-28T06:14:05.089Z,11.39
2022-09-28T06:16:32.349Z,11.38
2022-09-28T06:18:58.941Z,11.39
2022-09-28T06:21:58.418Z,11.34
2022-09-28T06:24:26.005Z,11.39
2022-09-28T06:26:52.838Z,11.40
2022-09-28T06:29:20.569Z,11.40
2022-09-28T06:31:47.292Z,11.41
2022-09-28T06:34:14.264Z,11.41
2022-09-28T06:36:40.966Z,11.41
2022-09-28T06:39:07.754Z,11.42
2022-09-28T06:41:35.816Z,11.42
2022-09-28T06:44:12.530Z,11.42
2022-09-28T06:47:17.732Z,11.41
2022-09-28T06:49:55.391Z,11.43
2022-09-28T06:52:51.493Z,11.42
2022-09-28T06:55:28.847Z,11.41
2022-09-28T06:57:58.557Z,11.43
2022-09-28T07:00:27.006Z,11.42
2022-09-28T07:02:54.305Z,11.44
2022-09-28T07:05:56.816Z,11.45
2022-09-28T07:08:41.758Z,11.45
2022-09-28T07:11:44.722Z,11.43
2022-09-28T07:14:45.579Z,11.46
2022-09-28T07:17:14.496Z,11.46
2022-09-28T07:41:34.001Z,11.45
2022-09-28T07:44:06.360Z,11.48
2022-09-28T07:46:36.040Z,11.51
2022-09-28T07:49:12.380Z,11.53
2022-09-28T07:51:54.436Z,11.54
2022-09-28T07:54:27.498Z,11.57
2022-09-28T07:57:13.293Z,11.59
2022-09-28T08:00:08.129Z,11.60
2022-09-28T08:02:48.299Z,11.60
2022-09-28T08:05:22.003Z,11.62
2022-09-28T08:07:48.634Z,11.64
2022-09-28T08:10:17.345Z,11.65
2022-09-28T08:13:03.309Z,11.67
2022-09-28T08:15:37.012Z,11.68
2022-09-28T08:18:13.923Z,11.71
2022-09-28T08:20:58.906Z,11.73
2022-09-28T08:23:26.066Z,11.74
2022-09-28T08:25:54.243Z,11.76
2022-09-28T08:28:23.757Z,11.79
2022-09-28T08:30:54.319Z,11.81
2022-09-28T08:33:41.210Z,11.83
2022-09-28T08:36:26.119Z,11.84
2022-09-28T08:39:01.701Z,11.87
2022-09-28T08:42:15.779Z,11.87
2022-09-28T08:45:23.457Z,11.89
2022-09-28T08:48:51.762Z,11.86
2022-09-28T08:51:59.310Z,11.92
2022-09-28T08:54:45.047Z,11.96
2022-09-28T08:57:27.515Z,11.96
2022-09-28T09:00:00.150Z,12.00
2022-09-28T09:02:33.573Z,12.03
2022-09-28T09:05:20.408Z,12.06
2022-09-28T09:08:19.202Z,12.09
2022-09-28T09:10:52.741Z,12.11
2022-09-28T09:13:50.958Z,12.12
2022-09-28T09:17:00.541Z,12.15
2022-09-28T09:20:15.604Z,12.15
2022-09-28T09:23:05.180Z,12.19
2022-09-28T09:25:47.383Z,12.20
2022-09-28T09:28:32.697Z,12.23
2022-09-28T09:31:17.690Z,12.23
2022-09-28T09:34:36.998Z,12.19
2022-09-28T09:38:00.387Z,12.24
2022-09-28T09:41:01.348Z,12.27
2022-09-28T09:44:27.442Z,12.24
2022-09-28T09:47:14.952Z,12.28
2022-09-28T09:49:51.324Z,12.29
2022-09-28T09:52:21.183Z,12.31
2022-09-28T09:54:51.473Z,12.32
2022-09-28T09:57:51.802Z,12.33
2022-09-28T10:00:51.853Z,12.33
2022-09-28T10:03:34.691Z,12.36
2022-09-28T10:06:16.738Z,12.37
2022-09-28T10:09:04.352Z,12.39
2022-09-28T10:11:41.154Z,12.39
2022-09-28T10:14:15.849Z,12.42
2022-09-28T10:16:48.445Z,12.44
2022-09-28T10:19:35.416Z,12.43
2022-09-28T10:22:23.887Z,12.46
2022-09-28T10:24:54.837Z,12.47
2022-09-28T10:27:29.720Z,12.48
2022-09-28T10:30:16.091Z,12.48
2022-09-28T10:32:44.782Z,12.50
2022-09-28T10:35:27.973Z,12.50
2022-09-28T10:38:15.057Z,12.51
2022-09-28T10:40:51.135Z,12.52
2022-09-28T10:43:33.464Z,12.54
2022-09-28T10:46:09.172Z,12.57
2022-09-28T10:48:45.573Z,12.56
2022-09-28T10:51:12.178Z,12.57
2022-09-28T10:53:40.130Z,12.58
2022-09-28T10:56:21.877Z,12.56
2022-09-28T10:58:53.530Z,12.61
2022-09-28T11:01:33.380Z,12.62
2022-09-28T11:04:08.022Z,12.63
2022-09-28T11:06:39.050Z,12.63
2022-09-28T11:09:30.591Z,12.63
2022-09-28T11:12:04.909Z,12.64
2022-09-28T11:14:43.549Z,12.65
2022-09-28T11:17:33.456Z,12.66
2022-09-28T11:20:26.060Z,12.67
2022-09-28T11:22:59.125Z,12.69
2022-09-28T11:25:31.334Z,12.71
2022-09-28T11:28:04.353Z,12.73
2022-09-28T11:31:01.470Z,12.72
2022-09-28T11:33:41.320Z,12.75
2022-09-28T11:36:29.542Z,12.77
2022-09-28T11:39:03.201Z,12.81
2022-09-28T11:42:31.468Z,12.81
2022-09-28T11:45:19.680Z,12.83
2022-09-28T11:47:51.680Z,12.86
2022-09-28T11:50:28.321Z,12.89
2022-09-28T11:53:10.836Z,12.91
2022-09-28T11:55:46.703Z,12.94
2022-09-28T11:58:23.363Z,12.97
2022-09-28T12:01:19.362Z,12.95
2022-09-28T12:04:20.624Z,13.03
2022-09-28T12:06:53.396Z,13.05
2022-09-28T12:09:32.553Z,13.07
2022-09-28T12:12:22.108Z,13.10
2022-09-28T12:14:57.163Z,13.11
2022-09-28T12:17:30.772Z,13.12
2022-09-28T12:20:05.390Z,13.16
2022-09-28T12:22:40.763Z,13.16
2022-09-28T12:25:14.842Z,13.20
2022-09-28T12:27:48.308Z,13.21
2022-09-28T12:30:21.439Z,13.23
2022-09-28T12:32:54.021Z,13.25
2022-09-28T12:35:53.487Z,13.26
2022-09-28T12:38:40.614Z,13.26
2022-09-28T12:41:13.138Z,13.31
2022-09-28T12:43:49.415Z,13.31
2022-09-28T12:46:42.358Z,13.31
2022-09-28T12:50:20.002Z,13.34
2022-09-28T12:52:29.058Z,13.34
2022-09-28T12:55:22.027Z,13.35
2022-09-28T12:58:16.526Z,13.36
2022-09-28T13:01:06.222Z,13.37
2022-09-28T13:03:45.028Z,13.40
2022-09-28T13:06:36.009Z,13.39
2022-09-28T13:09:25.578Z,13.40
2022-09-28T13:12:11.690Z,13.40
2022-09-28T13:14:38.126Z,13.41
2022-09-28T13:17:20.491Z,13.43
2022-09-28T13:20:21.306Z,13.40
2022-09-28T13:23:09.732Z,13.39
2022-09-28T13:25:40.967Z,13.44
2022-09-28T13:28:07.537Z,13.44
2022-09-28T13:30:38.971Z,13.44
2022-09-28T13:33:07.813Z,13.40
2022-09-28T13:35:34.924Z,13.44
2022-09-28T13:38:16.439Z,13.44
2022-09-28T13:41:04.735Z,13.44
2022-09-28T13:43:35.301Z,13.45
2022-09-28T13:46:20.533Z,13.45
2022-09-28T13:49:03.257Z,13.45
2022-09-28T13:51:48.516Z,13.43
2022-09-28T13:54:46.546Z,13.44
2022-09-28T13:57:21.293Z,13.46
2022-09-28T14:00:10.823Z,13.45
2022-09-28T14:02:46.532Z,13.45
2022-09-28T14:05:46.248Z,13.45
2022-09-28T14:08:26.105Z,13.48
2022-09-28T14:11:24.563Z,13.46
2022-09-28T14:14:11.770Z,13.47
2022-09-28T14:16:39.458Z,13.46
2022-09-28T14:19:24.254Z,13.52
2022-09-28T14:22:18.178Z,13.50
2022-09-28T14:24:55.488Z,13.50
2022-09-28T14:27:52.111Z,13.49
2022-09-28T14:30:34.924Z,13.49
2022-09-28T14:33:16.372Z,13.52
2022-09-28T14:35:56.415Z,13.51
2022-09-28T14:38:49.857Z,13.53
2022-09-28T14:41:17.633Z,13.55
2022-09-28T14:43:44.052Z,13.55
2022-09-28T14:46:23.176Z,13.56
2022-09-28T14:49:25.025Z,13.55
2022-09-28T14:51:51.437Z,13.56
2022-09-28T14:54:21.127Z,13.56
2022-09-28T14:56:53.476Z,13.57
2022-09-28T14:59:22.484Z,13.57
2022-09-28T15:02:01.402Z,13.57
2022-09-28T15:04:30.593Z,13.60
2022-09-28T15:07:00.234Z,13.62
2022-09-28T15:09:31.939Z,13.64
2022-09-28T15:12:18.559Z,13.63
2022-09-28T15:15:04.442Z,13.62
2022-09-28T15:17:40.053Z,13.66
2022-09-28T15:20:22.622Z,13.67
2022-09-28T15:22:51.752Z,13.69
2022-09-28T15:25:21.413Z,13.68
2022-09-28T15:27:54.147Z,13.71
2022-09-28T15:30:29.702Z,13.71
2022-09-28T15:33:17.952Z,13.72
2022-09-28T15:36:01.998Z,13.71
2022-09-28T15:38:31.040Z,13.70
2022-09-28T15:40:57.908Z,13.73
2022-09-28T15:43:32.789Z,13.73
2022-09-28T15:46:21.528Z,13.72
2022-09-28T15:48:59.511Z,13.73
2022-09-28T15:51:27.473Z,13.76
2022-09-28T15:54:04.165Z,13.76
2022-09-28T15:56:31.275Z,13.76
2022-09-28T15:59:15.659Z,13.75
2022-09-28T16:01:43.769Z,13.77
2022-09-28T16:04:39.770Z,13.76
2022-09-28T16:07:09.195Z,13.78
2022-09-28T16:10:05.352Z,13.75
2022-09-28T16:12:37.783Z,13.77
2022-09-28T16:15:20.430Z,13.76
2022-09-28T16:18:01.397Z,13.77
2022-09-28T16:20:31.989Z,13.78
2022-09-28T16:23:06.028Z,13.78
2022-09-28T16:25:38.041Z,13.78
2022-09-28T16:28:06.237Z,13.78
2022-09-28T16:30:34.541Z,13.77
2022-09-28T16:33:25.694Z,13.78
2022-09-28T16:35:53.116Z,13.78
2022-09-28T16:38:20.010Z,13.77
2022-09-28T16:40:54.831Z,13.76
2022-09-28T16:43:26.952Z,13.77
2022-09-28T16:45:57.556Z,13.77
2022-09-28T16:48:29.134Z,13.76
2022-09-28T16:50:56.713Z,13.71
2022-09-28T16:53:41.822Z,13.70
2022-09-28T16:56:08.771Z,13.70
2022-09-28T16:58:36.099Z,13.70
2022-09-28T17:01:02.814Z,13.66
2022-09-28T17:03:31.199Z,13.63
2022-09-28T17:05:57.766Z,13.64
2022-09-28T17:08:24.883Z,13.62
2022-09-28T17:11:15.886Z,13.61
2022-09-28T17:13:45.943Z,13.57
2022-09-28T17:16:14.078Z,13.57
2022-09-28T17:18:41.170Z,13.54
2022-09-28T17:21:12.225Z,13.50
2022-09-28T17:23:38.788Z,13.49
2022-09-28T17:26:06.700Z,13.44
2022-09-28T17:28:35.914Z,13.43
2022-09-28T17:31:04.276Z,13.42
2022-09-28T17:33:31.088Z,13.39
2022-09-28T17:36:00.567Z,13.36
2022-09-28T17:38:27.844Z,13.35
2022-09-28T17:40:54.454Z,13.31
2022-09-28T17:43:22.200Z,13.29
2022-09-28T17:45:49.508Z,13.28
2022-09-28T17:48:23.938Z,13.24
2022-09-28T17:50:51.170Z,13.21
2022-09-28T17:53:17.826Z,13.19
2022-09-28T17:55:44.277Z,13.17
2022-09-28T17:58:19.266Z,13.13
2022-09-28T18:00:47.848Z,13.09
2022-09-28T18:03:17.190Z,13.07
2022-09-28T18:05:44.590Z,13.02
2022-09-28T18:08:15.371Z,13.02
2022-09-28T18:10:41.945Z,12.99
2022-09-28T18:13:09.043Z,12.93
2022-09-28T18:15:36.115Z,12.92
2022-09-28T18:18:02.822Z,12.88
2022-09-28T18:20:29.710Z,12.84
2022-09-28T18:22:56.953Z,12.83
2022-09-28T18:25:23.546Z,12.81
2022-09-28T18:27:50.123Z,12.79
2022-09-28T18:30:16.885Z,12.75
2022-09-28T18:32:43.422Z,12.71
2022-09-28T18:35:11.175Z,12.69
2022-09-28T18:37:40.317Z,12.65
2022-09-28T18:40:12.887Z,12.61
2022-09-28T18:42:40.429Z,12.59
2022-09-28T18:45:11.149Z,12.49
2022-09-28T18:47:39.063Z,12.54
2022-09-28T18:50:06.432Z,12.50
2022-09-28T18:52:36.289Z,12.48
2022-09-28T18:55:03.219Z,12.43
2022-09-28T18:57:33.058Z,12.43
2022-09-28T19:00:07.119Z,12.39
2022-09-28T19:02:33.768Z,12.36
2022-09-28T19:05:00.491Z,12.33
2022-09-28T19:07:27.310Z,12.30
2022-09-28T19:09:53.773Z,12.27
2022-09-28T19:12:20.815Z,12.24
2022-09-28T19:14:47.533Z,12.20
2022-09-28T19:17:14.175Z,12.16
2022-09-28T19:19:42.702Z,12.15
2022-09-28T19:22:09.581Z,12.12
2022-09-28T19:24:36.103Z,12.12
2022-09-28T19:27:02.695Z,12.09
2022-09-28T19:29:29.466Z,12.06
2022-09-28T19:31:57.047Z,12.03
2022-09-28T19:34:26.877Z,12.01
2022-09-28T19:36:53.471Z,11.98
2022-09-28T19:39:20.067Z,11.89
2022-09-28T19:41:53.041Z,11.93
2022-09-28T19:44:27.491Z,11.90
2022-09-28T19:46:59.367Z,11.86
2022-09-28T19:49:27.492Z,11.84
2022-09-28T19:52:13.836Z,11.81
2022-09-28T19:54:56.459Z,11.78
2022-09-28T19:57:31.248Z,11.68
2022-09-28T20:00:02.101Z,11.70
2022-09-28T20:02:33.485Z,11.67
2022-09-28T20:05:00.297Z,11.66
2022-09-28T20:07:26.793Z,11.64
2022-09-28T20:09:53.421Z,11.62
2022-09-28T20:12:20.193Z,11.59
2022-09-28T20:14:46.927Z,11.56
2022-09-28T20:17:13.619Z,11.50
2022-09-28T20:19:40.408Z,11.52
2022-09-28T20:22:07.162Z,11.22
2022-09-28T20:24:33.814Z,11.45
2022-09-28T20:27:02.537Z,11.45
2022-09-28T20:29:32.087Z,11.41
2022-09-28T20:31:59.158Z,11.40
2022-09-28T20:34:25.882Z,11.32
2022-09-28T20:36:52.593Z,11.34
2022-09-28T20:39:19.355Z,11.30
2022-09-28T20:41:47.282Z,11.28
2022-09-28T20:44:17.121Z,11.19
2022-09-28T20:46:44.279Z,11.23
2022-09-28T20:49:11.066Z,11.21
2022-09-28T20:51:37.662Z,11.17
2022-09-28T20:54:04.559Z,11.16
2022-09-28T20:56:37.712Z,11.13
2022-09-28T20:59:09.860Z,11.11
2022-09-28T21:01:36.448Z,11.09
2022-09-28T21:04:28.508Z,11.04
2022-09-28T21:06:55.076Z,11.03
2022-09-28T21:09:21.627Z,11.00
2022-09-28T21:11:48.467Z,10.95
2022-09-28T21:14:15.087Z,10.95
2022-09-28T21:16:41.583Z,10.90
2022-09-28T21:19:08.117Z,10.90
2022-09-28T21:21:34.737Z,10.87
2022-09-28T21:24:02.004Z,10.83
2022-09-28T21:26:31.001Z,10.84
2022-09-28T21:29:06.229Z,10.75
2022-09-28T21:31:39.103Z,10.77
2022-09-28T21:34:06.225Z,10.75
2022-09-28T21:36:33.690Z,10.69
2022-09-28T21:39:00.200Z,10.71
2022-09-28T21:41:27.103Z,10.68
2022-09-28T21:43:53.770Z,10.65
2022-09-28T21:46:20.413Z,10.63
2022-09-28T21:48:51.406Z,10.61
2022-09-28T21:51:17.917Z,10.54
2022-09-28T21:53:44.531Z,10.57
2022-09-28T21:56:12.813Z,10.54
2022-09-28T21:58:40.010Z,10.52
2022-09-28T22:01:25.456Z,10.49
2022-09-28T22:03:55.161Z,10.46
2022-09-28T22:06:23.654Z,10.44
2022-09-28T22:08:50.696Z,10.42
2022-09-28T22:11:26.296Z,10.35
2022-09-28T22:13:55.192Z,10.38
2022-09-28T22:16:30.737Z,10.34
2022-09-28T22:18:57.752Z,10.32
2022-09-28T22:21:30.180Z,10.27
2022-09-28T22:24:01.270Z,10.27
2022-09-28T22:26:29.266Z,10.23
2022-09-28T22:28:58.103Z,10.23
2022-09-28T22:31:30.224Z,10.20
2022-09-28T22:33:57.766Z,10.18
2022-09-28T22:36:25.870Z,10.16
2022-09-28T22:38:54.533Z,10.12
2022-09-28T22:41:21.910Z,10.13
2022-09-28T22:43:50.261Z,10.10
2022-09-28T22:46:20.111Z,10.09
2022-09-28T22:48:54.676Z,10.06
2022-09-28T22:51:22.102Z,10.02
2022-09-28T22:53:48.832Z,9.98
2022-09-28T22:56:18.759Z,9.96
2022-09-28T22:58:46.466Z,9.96
2022-09-28T23:01:18.549Z,9.93
2022-09-28T23:03:45.398Z,9.92
2022-09-28T23:06:14.122Z,9.90
2022-09-28T23:08:40.619Z,9.88
2022-09-28T23:11:07.307Z,9.86
2022-09-28T23:13:35.088Z,9.85
2022-09-28T23:16:07.042Z,9.82
2022-09-28T23:18:36.397Z,9.80
2022-09-28T23:21:07.563Z,9.76
2022-09-28T23:23:34.418Z,9.76
2022-09-28T23:26:09.312Z,9.75
2022-09-28T23:28:35.809Z,9.73
2022-09-28T23:31:14.474Z,9.68
2022-09-28T23:33:41.494Z,9.66
2022-09-28T23:36:08.948Z,9.65
2022-09-28T23:38:35.482Z,9.63
2022-09-28T23:41:02.252Z,9.61
2022-09-28T23:43:28.926Z,9.59
2022-09-28T23:45:55.407Z,9.58
2022-09-28T23:48:21.849Z,9.56
2022-09-28T23:50:48.707Z,9.52
2022-09-28T23:53:15.238Z,9.52
2022-09-28T23:55:42.556Z,9.50
2022-09-28T23:58:10.086Z,9.47
